Ride Results

Tom Quilty Gold Cup (07-06-1997)
Ride distance: 160.0 km

Outcomes - Tom Quilty Gold Cup (07-06-1997)
Division No. of Entries Retired / DNE Completed Withdrawn Ineligible V/O Percentage Completed
HW 48 - 23 4 - 21 47.92%
MW 132 - 80 10 - 42 60.61%
LW 59 - 31 - - 28 52.54%
JN 19 - 9 1 - 9 47.37%
Totals 258 - 143 15 - 100 55.43%
Results - Tom Quilty Gold Cup (07-06-1997)
No. Rider Horse Place Time Leg Speeds Total
Km/Hr
H/R bpm
Heavyweight
208 Ron Haigh Al Meraine Rici 1 (BC) 12:08:40 14.9, 14.0, 11.3, 12.1 13.17 48, 40, 44, 51, 52 (Avg:46)
197 Bill Standfield Joseph 2 13:23:00 12.8, 12.6, 10.5, 11.8 11.96 28, 40, 52, 48, 43 (Avg:45)
169 Brian Keep Doran Park Nimbus 3 14:07:24 18.4, 12.7, 8.8, 7.2 11.33 28, 49, 46, 50, 41 (Avg:46)
200 Craig Renner Sahateyn Gai S'Jaht 4 14:27:54 12.7, 11.3, 9.7, 10.1 11.06 35, 39, 49, 52, 52 (Avg:48)
20 Russell Adam Aloha Messiah 5 14:57:06 15.0, 10.4, 8.7, 9.0 10.70 32, 45, 40, 48, 46 (Avg:44)
131 Wayne Watt Saarum 6 16:04:10 13.2, 10.0, 8.0, 8.9 9.96 30, 43, 56, 50, 52 (Avg:50)
76 Alan Mackinder Vanay Park Ambassador 7 17:02:10 10.6, 9.5, 8.4, 8.6 9.39 38, 44, 51, 50, 50 (Avg:48)
56 Ralph Turnbull Iditerod Redwing 8 17:29:02 11.4, 10.0, 7.3, 7.9 9.15 32, 40, 45, 49, 46 (Avg:45)
129 Robert Merriman Blue Bayou 9 18:15:34 10.0, 8.6, 7.7, 8.7 8.76 34, 40, 48, 52, 48 (Avg:47)
130 Neil Sinclair Cagra Sami's Simply Red 10 18:16:50 11.6, 8.4, 7.6, 7.2 8.75 40, 40, 46, 40, 40 (Avg:41)
45 Luke Robinson Helwa Alisha 11 18:17:18 11.2, 9.1, 7.4, 7.0 8.75 30, 40, 41, 46, 39 (Avg:41)
136 Geoff Sorenson Ben Jasaal 11 18:17:18 11.7, 8.6, 7.4, 7.3 8.75 44, 50, 56, 48, 44 (Avg:49)
102 Allie Roberts Legacy Of Lachlan 13 18:27:00 13.3, 9.3, 6.4, 6.8 8.67 36, 39, 50, 59, 48 (Avg:49)
171 Frank Muddyman Brandy 14 18:47:00 9.1, 8.9, 8.4, 6.9 8.52 44, 45, 55, 58, 55 (Avg:53)
157 Ross Hill Lentara Park Jobe 15 19:16:00 10.2, 8.5, 6.7, 8.1 8.30 31, 38, 40, 40, 38 (Avg:39)
60 Tom Perkins Snr Jack 15 19:16:00 8.7, 8.1, 8.8, 6.9 8.30 34, 46, 52, 50, 51 (Avg:49)
101 Chris Cooper Melody's Flight 17 19:41:00 9.1, 7.9, 7.9, 7.0 8.13 36, 52, 56, 57, 48 (Avg:53)
230 William Howlett Woongabeena Tadgh 17 19:41:00 9.8, 7.9, 7.1, 7.5 8.13 28, 36, 42, 48, 39 (Avg:41)
126 Ray Rhodes Funny Girl 19 19:51:00 8.8, 8.0, 7.2, 8.1 8.06 29, 44, 52, 50, 46 (Avg:48)
249 Gerry Drenthe Tora Sabah 20 19:52:00 10.7, 7.5, 6.7, 7.7 8.05 32, 41, 46, 44, 44 (Avg:43)
253 Norb Radny Kada's Ta'baah 20 19:52:00 10.7, 7.5, 6.7, 7.7 8.05 39, 48, 58, 54, 52 (Avg:53)
151 John Dawson Alandell Scarlet 22 20:18:00 8.8, 7.7, 6.7, 9.0 7.88 36, 46, 44, 46, 42 (Avg:44)
24 Nick Paiva Pinosa Park Zaahiba 22 20:18:00 8.8, 7.9, 6.9, 8.0 7.88 36, 47, 46, 54, 52 (Avg:49)
10 Brad Innes Tobias Lame L4 16:36:12 12.6, 9.7, 8.0, 8.1 9.64 34, 48, 49, 50, 43 (Avg:47)
237 Len Law Hamamas Pilgram Star Lame L4 16:36:18 16.5, 8.7, 7.8, 7.5 9.64 47, 49, 47, 50, 50 (Avg:49)
36 Damien Bonham Archer Lame L3 10:52:00 15.5, 12.3, 10.7 12.70 29, 45, 47, 52 (Avg:48)
224 Peter Birch Kamaret Gypsy Lame L3 13:40:00 12.7, 9.8, 8.3 10.10 33, 40, 43, 49 (Avg:44)
247 Harry O'Brien Peringa Music Metabolics L3 13:55:00 12.1, 9.9, 8.1 9.92 30, 44, 47, 55 (Avg:48)
142 Steve Brooks Henessy Lame L3 15:03:00 11.5, 8.7, 7.7 9.17 39, 52, 54, 60 (Avg:55)
239 Selwyn Nix Blythswood Sir Galahad Heart Rate L3 15:29:00 9.8, 8.6, 8.2 8.91 33, 43, 44, 64 (Avg:50)
77 Fritz Seehofer Ibn Danzig Widthdrawn L3 16:37:00 - 8.30 32, 42, 50, 50 (Avg:47)
138 Thomas Shaw Wesswood Willow Widthdrawn L3 17:45:00 - 7.77 44, 46, 44, 52 (Avg:47)
135 Allen Rudy Kayar Cossack Widthdrawn L3 17:50:00 - 7.74 36, 46, 48, 50 (Avg:48)
122 Ian(A) Forrester Ipec Widthdrawn L2 6:13:00 - 15.28 40, 44, 52 (Avg:48)
63 Mark Freeman Cedar Ridge Ground Control Lame L2 7:38:00 13.8, 11.2 12.45 36, 48, 56 (Avg:52)
95 Colin Spicer Kuhaylan Saliha Heart Rate L2 9:18:00 11.1, 9.3 10.22 40, 49, 63 (Avg:56)
999 Cary Mustow Parlour Mountain Tabatha Lame L2 9:19:00 12.4, 8.5 10.20 30, 40, 46 (Avg:43)
41 Col Joyce Kaid Lame L1 3:09:00 15.5 15.56 33, 46 (Avg:46)
231 Peter Toft Vet School Laurance Lame L1 3:12:00 15.3 15.31 39, 44 (Avg:44)
185 David Caldwell Sonval Mukhtar Lame L1 3:53:00 12.6 12.62 28, 40 (Avg:40)
39 Ern Gleeson Tristram Kabir-Hamra Metabolics L1 4:00:00 12.2 12.25 36, 50 (Avg:50)
18 Delma Ross Patrone Heart Rate L1 4:10:00 11.7 11.76 25, 62 (Avg:62)
124 Russell Holmes Karumba Dilemma Heart Rate L1 4:31:00 10.8 10.85 32, 62 (Avg:62)
173 Andrew McNicol Aden Heart Rate L1 5:01:00 9.7 9.77 33, 62 (Avg:62)
218 Noel Weismann Araluca Bolero Heart Rate L1 5:25:00 9.0 9.05 34, 57 (Avg:57)
172 Roy Noble Booralie El Zalazar Heart Rate L1 5:32:00 8.8 8.86 34, 62 (Avg:62)
245 Di Kajar Maricol Inka Metabolics P/R 0:00:00 - - 44
205 Ivan Sampson Hillbrae L.C. Metabolics P/R 0:00:00 - - 40
Middleweight
40 Terry Wood Peppersfield Nabucco 1 (BC) 10:28:50 17.0, 15.5, 16.6, 10.5 15.27 40, 45, 51, 56, 53 (Avg:51)
189 Bob Sample Sharahd Caprice 2 11:12:12 18.4, 14.6, 11.5, 13.0 14.28 40, 42, 57, 48, 49 (Avg:49)
190 Brook Sample Sharahd Cavalier 2 11:12:12 18.4, 14.6, 11.5, 13.0 14.28 36, 44, 52, 46, 50 (Avg:48)
195 June Petersen Abbeline Elektra 4 12:08:40 14.9, 14.0, 11.3, 12.2 13.17 39, 34, 40, 48, 51 (Avg:43)
19 Searle Johnston Narraburra Magnifique 5 12:24:02 18.2, 13.1, 10.1, 10.9 12.90 35, 48, 50, 52, 51 (Avg:50)
44 Carson Stacey Aloha Zariba 6 12:46:54 14.0, 13.0, 11.7, 10.3 12.52 40, 44, 48, 48, 50 (Avg:47)
221 Derek Armitage Barbaree Sioll 7 12:50:18 15.3, 12.5, 10.1, 12.5 12.46 34, 46, 51, 46, 45 (Avg:47)
256 Martin Parker Lobo Magic 7 12:50:18 14.8, 11.9, 10.8, 12.5 12.46 39, 40, 44, 46, 50 (Avg:45)
28 Dale Fitz-Gerald Innesview Desert Mhasa 9 13:56:46 18.4, 11.3, 8.6, 9.7 11.47 40, 41, 54, 53, 59 (Avg:51)
1 Scott Blackley El Cabron 10 14:04:00 14.9, 12.5, 8.5, 10.3 11.37 37, 50, 54, 49, 51 (Avg:51)
210 Jeff Trevarthen Willara Somer 'o' Starlight 11 14:07:24 13.4, 11.4, 10.2, 9.6 11.33 37, 47, 48, 59, 50 (Avg:51)
174 Sue Reed Kevisan Park Zamira 12 14:30:42 13.8, 12.6, 9.0, 8.5 11.03 28, 42, 49, 52, 47 (Avg:47)
182 Kevin Cook Numkimbil 13 14:37:46 12.7, 10.4, 9.8, 11.0 10.94 35, 52, 36, 52, 58 (Avg:49)
152 Sharon Foster Wertaloona Lionel 13 14:37:46 14.6, 10.1, 8.9, 11.0 10.94 48, 40, 40, 44, 48 (Avg:43)
113 Gary Mccarthy Wave 15 14:40:10 17.0, 12.6, 7.9, 7.8 10.91 36, 46, 60, 44, 44 (Avg:48)
49 Steven White Silvercrest Jalad 16 14:46:02 14.9, 10.6, 8.7, 9.7 10.83 32, 38, 39, 45, 38 (Avg:40)
42 Gay Kerr Oakeleigh Park Phasaad 17 14:57:06 13.4, 11.5, 8.7, 9.0 10.70 26, 40, 50, 49, 43 (Avg:45)
243 Gayle Holmes Faraway Verdict 18 15:03:38 11.8, 10.8, 8.9, 11.5 10.62 31, 40, 53, 50, 42 (Avg:46)
119 Sue Swan Aloha Goldleaf 18 15:03:38 13.0, 10.8, 8.3, 11.5 10.62 34, 41, 38, 44, 42 (Avg:41)
38 Geoff Hurt Kejome Komet 20 15:20:42 12.5, 11.6, 8.1, 10.0 10.43 30, 36, 49, 42, 44 (Avg:42)
223 Jo Hamilton-Branigan Willow 21 15:58:20 13.0, 10.0, 8.0, 9.4 10.02 36, 33, 53, 46, 40 (Avg:43)
108 Donna Tidswell Mr- Coady 22 16:04:12 13.2, 10.0, 8.0, 8.9 9.96 26, 37, 42, 48, 44 (Avg:42)
84 Betty Cowdery Abrock Gemma 23 16:23:18 13.2, 9.4, 8.0, 8.7 9.76 40, 51, 46, 53, 50 (Avg:50)
175 Meg Wade Hazeldean Sameera 24 16:59:20 12.1, 8.6, 7.7, 10.3 9.42 36, 42, 42, 49, 45 (Avg:44)
72 John Symons Kymish Fortitude 25 16:59:22 11.1, 9.1, 8.1, 9.7 9.42 48, 42, 52, 59, 50 (Avg:50)
149 Kathy Vinge Cabna 26 17:00:02 11.3, 10.6, 7.5, 8.1 9.41 37, 50, 57, 57, 52 (Avg:54)
193 Ray Vlad Taj Aheen 26 17:00:02 11.7, 9.5, 8.3, 7.6 9.41 36, 44, 57, 49, 48 (Avg:49)
23 Katelyn Walker Milora Park Blue Fire 28 17:00:40 9.4, 10.1, 9.3, 8.2 9.41 36, 48, 47, 48, 47 (Avg:47)
104 Stuart Hitchcock Flash Lite 29 17:13:10 10.4, 10.9, 7.3, 8.8 9.29 38, 37, 50, 48, 47 (Avg:45)
121 Anthony Geyteman Toffreyn 30 17:13:12 9.7, 10.1, 7.8, 10.2 9.29 33, 41, 46, 46, 52 (Avg:46)
66 Allan Caslick Richard 31 17:16:16 11.2, 10.8, 6.7, 9.4 9.26 32, 37, 46, 48, 48 (Avg:44)
125 Mathew Thuaux Sharaza 32 17:18:14 12.6, 8.4, 7.6, 9.2 9.25 36, 43, 49, 49, 43 (Avg:46)
137 Peter Brown St Albans Sharif 33 17:22:48 11.3, 9.5, 7.6, 8.3 9.21 27, 40, 54, 48, 54 (Avg:49)
213 Sandy Watt Cairo 34 17:27:24 14.4, 8.3, 8.1, 6.6 9.17 35, 41, 58, 60, 47 (Avg:51)
91 Robert Wickson Cassie 35 17:29:00 11.5, 9.9, 7.3, 7.9 9.15 41, 46, 56, 52, 48 (Avg:50)
57 Jody Turnbull Oakeleigh Park Magnum 36 17:29:02 11.4, 10.0, 7.3, 7.9 9.15 33, 44, 55, 52, 44 (Avg:48)
50 Tony Douch Aloha Flutter 37 17:30:00 10.9, 9.5, 7.7, 8.1 9.14 31, 44, 46, 54, 48 (Avg:48)
183 Maureen Feltham Rathowen Idol 38 17:30:04 10.5, 9.7, 8.0, 7.9 9.14 36, 48, 47, 45, 43 (Avg:45)
140 Fernando Espindola Frostedice 39 17:32:38 9.8, 9.4, 8.5, 8.3 9.12 33, 42, 42, 52, 42 (Avg:44)
110 Peter Webber Callyvah Marsimba 40 17:33:24 11.9, 10.5, 8.0, 5.8 9.11 38, 53, 52, 56, 51 (Avg:53)
188 Jim Wells Ausden Silver Sparkle 41 17:41:44 10.7, 8.6, 8.4, 8.1 9.04 34, 49, 49, 52, 44 (Avg:48)
170 Alan Salter Forest Inn Kateefa 42 17:55:40 11.7, 9.5, 7.6, 6.7 8.92 32, 51, 54, 52, 46 (Avg:50)
43 Alan Lindsay Oakeleigh Park Silver Shadow 43 17:56:02 9.1, 9.8, 8.0, 8.5 8.92 30, 40, 46, 48, 49 (Avg:45)
219 Tim Weismann Matta Mia Rasul 44 17:59:34 9.0, 10.1, 8.2, 7.7 8.89 44, 39, 48, 46, 43 (Avg:44)
52 Peter Luthy Highlands Abigal 45 17:59:52 11.3, 8.9, 7.3, 8.4 8.89 32, 44, 48, 47, 44 (Avg:45)
71 Julie Reay Patchwork Panache 46 18:01:30 9.6, 9.0, 8.1, 8.4 8.88 32, 43, 44, 48, 44 (Avg:44)
94 Cheryl Berry Palphar 47 18:03:08 11.4, 9.2, 7.2, 7.4 8.86 40, 46, 50, 56, 48 (Avg:50)
164 Toni-Anne Lewis Doran Park Zatory 48 18:05:40 17.3, 9.1, 6.1, 6.6 8.84 46, 40, 42, 40, 37 (Avg:39)
90 Ron Males Ralvon Sunflower 49 18:06:14 10.3, 9.6, 7.3, 7.9 8.84 38, 46, 53, 52, 48 (Avg:49)
14 Brian O'Brien Ralvon Grace 49 18:06:14 10.3, 9.5, 7.4, 7.8 8.84 32, 47, 48, 49, 38 (Avg:45)
242 Robert Holding Sharahd Carah 51 18:06:16 10.3, 9.6, 7.3, 7.9 8.84 32, 36, 40, 49, 39 (Avg:41)
2 Maggi Winn Brodwinn Ferryman 52 18:16:18 9.9, 9.4, 7.5, 7.8 8.76 32, 40, 53, 55, 44 (Avg:48)
86 Bill Wicks Dunroven Missy 53 18:17:20 11.5, 8.9, 7.4, 7.0 8.75 28, 42, 44, 45, 42 (Avg:43)
54 Kathryn Moran Contessa 54 18:43:00 9.9, 8.5, 7.5, 8.0 8.55 43, 47, 48, 51, 51 (Avg:49)
4 Julie White Farashah 55 18:44:00 10.6, 7.7, 7.2, 9.7 8.54 27, 41, 51, 48, 54 (Avg:48)
177 Les Maclean K9 56 18:47:00 8.8, 9.2, 8.4, 6.8 8.52 32, 46, 45, 50, 52 (Avg:48)
47 Gaire Blunt Coolahlee Park Shasta 57 18:53:00 10.2, 8.3, 7.6, 7.4 8.47 36, 45, 50, 50, 52 (Avg:49)
48 Claudia Reid Tristram Asham-Liela 57 18:53:00 10.2, 8.3, 7.6, 7.3 8.47 35, 44, 43, 53, 46 (Avg:46)
35 Paul Grieves Kelkette Park Flyte 59 18:59:00 9.4, 9.0, 7.8, 6.7 8.43 34, 40, 44, 48, 42 (Avg:43)
111 Leslie Ralph Chip Chase Fadwan 59 18:59:00 10.1, 8.2, 7.7, 7.1 8.43 30, 40, 40, 49, 46 (Avg:43)
33 John Robertson Karabil Narmar 59 18:59:00 9.9, 8.4, 7.7, 7.1 8.43 35, 43, 54, 47, 49 (Avg:48)
21 Carly Adam Aloha Toltec 62 19:15:00 10.6, 8.7, 7.0, 6.6 8.31 36, 40, 45, 48, 48 (Avg:45)
227 Kathleen Roberts Shayperil Golden Lady 63 19:27:00 10.3, 8.3, 6.9, 7.2 8.23 34, 48, 48, 44, 44 (Avg:46)
254 Christopher Mahoney Kaysand Echo 64 19:32:00 8.6, 8.5, 7.9, 7.0 8.19 32, 51, 54, 54, 55 (Avg:53)
255 Keryn Mahoney Sarisha 64 19:32:00 8.6, 8.5, 7.9, 7.0 8.19 33, 38, 49, 51, 48 (Avg:46)
65 Steven Haasz Prescila 66 19:34:00 8.8, 8.1, 7.9, 7.3 8.18 37, 42, 48, 53, 46 (Avg:47)
68 Thomas Hermann Tarkhim Shar Araman 67 19:41:00 10.2, 7.9, 7.6, 6.3 8.13 42, 44, 48, 54, 50 (Avg:49)
194 Heather Roberts Archies Addios 68 19:42:00 12.4, 7.8, 6.2, 7.0 8.12 35, 46, 48, 48, 46 (Avg:47)
88 Karen Rhodes Karrana Kelly 69 19:51:00 8.8, 8.0, 7.2, 8.1 8.06 46, 40, 42, 43, 48 (Avg:43)
201 Olga Bartlett Jackson Brown 70 19:52:00 8.4, 8.0, 7.3, 8.6 8.05 33, 40, 48, 48, 48 (Avg:46)
209 Erika Woodland Anstley Houri 70 19:52:00 8.8, 7.9, 7.1, 8.6 8.05 32, 46, 41, 41, 37 (Avg:41)
22 Julie McGaw Barbury Aristocrat 72 20:01:00 9.0, 8.2, 6.8, 8.1 7.99 32, 43, 52, 60, 44 (Avg:49)
257 Daniele O'Loughlin Windsor Park Court Jester 72 20:01:00 10.0, 7.9, 6.4, 8.0 7.99 36, 40, 56, 48, 49 (Avg:48)
89 Karin Santoso Castlebar Musteke 74 20:07:00 8.9, 7.9, 7.1, 7.8 7.95 46, 46, 48, 48, 48 (Avg:47)
27 Bernice King Doralmir Park Nicholas 75 20:15:00 8.3, 7.4, 7.3, 9.2 7.90 35, 44, 49, 49, 46 (Avg:47)
12 John Rattray Sharmukha 76 20:17:00 9.8, 7.4, 6.2, 9.6 7.89 56, 50, 51, 48, 49 (Avg:49)
17 Jan Kurtzman Linden Seleng 77 20:21:00 8.7, 7.9, 6.9, 7.8 7.86 45, 35, 45, 48, 51 (Avg:44)
166 Sue Parsons Karumba Travellers Joy 77 20:21:00 9.5, 7.0, 6.9, 8.6 7.86 44, 42, 44, 52, 49 (Avg:46)
69 Carol Dawson Cherox Jawaalah 79 20:40:00 7.7, 7.3, 8.2, 7.5 7.74 42, 48, 57, 58, 50 (Avg:53)
51 Jennifer Hargraves Charu Royal Harvest 79 20:40:00 7.8, 7.7, 7.3, 8.4 7.74 36, 46, 54, 52, 47 (Avg:49)
150 Greg Burford Tristram Afar Lame L4 17:13:14 10.6, 10.6, 7.4, 8.5 9.29 35, 48, 54, 56, 56 (Avg:53)
165 Julia Gauci Cudglebar Mujeor Lame L4 18:05:00 12.6, 10.0, 7.3, 5.8 8.85 32, 40, 49, 52, 44 (Avg:46)
146 Jakelin Troy Springvale Park Kaliche Lame L4 18:42:00 11.0, 7.8, 7.3, 8.6 8.56 36, 40, 48, 46, 43 (Avg:44)
248 Judith Butler Yamegi Alexandria Lame L4 19:41:00 10.4, 8.9, 6.6, 6.4 8.13 30, 46, 55, 48, 46 (Avg:48)
202 Steven Vergis Kelkette Park Silver Elite Lame L3 9:32:00 17.1, 15.5, 11.5 14.48 32, 42, 47, 45 (Avg:44)
191 Chris Forrester Charabal Fabian Lame L3 10:05:00 16.7, 14.1, 11.0 13.69 36, 46, 50, 52 (Avg:49)
15 Le-Gendre Katrivessis Chip Chase Soliman Widthdrawn L3 10:37:00 - 13.00 34, 36, 46, 52 (Avg:44)
37 Sonia Bonham Rhimfire Lame L3 10:52:00 15.5, 12.3, 10.7 12.70 40, 38, 47, 55 (Avg:46)
103 Otto Van Kampen Melfi Heart Rate L3 11:05:00 15.9, 12.2, 10.0 12.45 32, 48, 58, 63 (Avg:56)
115 Lyn Trudgett Brandy Lame L3 12:25:00 13.8, 11.0, 9.0 11.11 41, 38, 54, 48 (Avg:46)
112 Jennifer Gilbertson Gilbertson Blaxland Lame L3 13:09:00 13.0, 10.8, 8.3 10.49 40, 39, 49, 49 (Avg:45)
79 Shirley Beresford Tantawanglo Nasara Widthdrawn L3 15:40:00 - 8.81 44, 48, 54, 60 (Avg:54)
96 Jason Kirk Ibn Amierr Lame L3 15:50:00 9.9, 9.1, 7.2 8.72 36, 43, 44, 40 (Avg:42)
67 Robyn Coombes Kiewa Kaddella Lame L3 15:54:00 9.5, 9.1, 7.4 8.68 40, 50, 57, 58 (Avg:55)
123 Edward Ljubicic Arundel House Rambler Heart Rate L3 16:25:00 9.0, 8.5, 7.5 8.41 34, 43, 59, 65 (Avg:55)
251 Ken Hobday Blue Heart Rate L3 16:31:00 11.1, 7.9, 6.8 8.36 36, 52, 52, 63 (Avg:55)
30 Lyn Bailey Lyndrian Reflection Widthdrawn L3 17:31:00 - 7.88 40, 40, 53, 57 (Avg:50)
5 Jason Haigh Camalot Ambassador Lame L2 6:12:00 18.1, 13.1 15.32 32, 44, 49 (Avg:46)
59 Debby Larkings Abrock Theodore Lame L2 7:38:00 15.0, 10.4 12.45 35, 41, 57 (Avg:49)
34 Ian Thorn Sharkey Widthdrawn L2 8:01:00 - 11.85 33, 46, 54 (Avg:50)
156 William McMillan St Albans Moonlight Metabolics L2 8:02:00 15.4, 9.4 11.83 32, 50, 80 (Avg:65)
199 Scott Hill Sharahd Laetitia Widthdrawn L2 8:14:00 - 11.54 42, 41, 50 (Avg:45)
3 Ross Gillett Portwood Ashtar Lame L2 8:22:00 11.8, 10.8 11.35 36, 52, 56 (Avg:54)
133 Stephen Dunstan Blaze Lame L2 8:33:00 11.6, 10.6 11.11 32, 38, 40 (Avg:39)
158 Wendy Leigh Sharahd Houdini Lame L2 8:54:00 11.9, 9.5 10.67 52, 44, 49 (Avg:46)
217 Sue Rhodes Jabulani Lame L2 8:54:00 14.4, 8.3 10.67 32, 45, 44 (Avg:44)
250 Ray Morley Chocolate Chip Lame L2 9:30:00 10.2, 9.7 10.00 35, 38, 40 (Avg:39)
80 Peter Brownlie Hillbrook Drifter Heart Rate L2 9:38:00 11.5, 8.5 9.86 32, 46, 64 (Avg:55)
143 Margaret Cole Shade Of Sadat Heart Rate L2 9:38:00 9.5, 10.2 9.86 33, 53, 68 (Avg:60)
180 Jim Maffett Kyup Queen Heart Rate L2 9:40:00 9.9, 9.7 9.83 32, 47, 64 (Avg:55)
159 Steve Broadbent Valinor Park Blue Moon Lame L2 9:57:00 10.3, 8.8 9.55 46, 44, 52 (Avg:48)
98 Graham Mitchell Almanda Tammariss Widthdrawn L2 11:23:00 - 8.35 32, 44, 58 (Avg:51)
207 Caroline Fitzgerald Suruk Widthdrawn L1 2:39:00 - 18.49 30, 41 (Avg:41)
203 Paul Brown Cawarral Falcon Lame L1 2:40:00 18.3 18.38 40, 55 (Avg:55)
168 Melva Keep Doran Park Tequila Lame L1 2:48:00 17.4 17.50 33, 44 (Avg:44)
252 Anton Reid T-Jay Widthdrawn L1 2:56:00 - 16.70 48, 49 (Avg:49)
236 Megan Law Doralmir Park Razana Heart Rate L1 2:58:00 16.5 16.52 32, 64 (Avg:64)
53 Jenette Harvey Faraway Palamah Metabolics L1 3:00:00 16.3 16.33 31, 48 (Avg:48)
64 Louise Lemon Rowallan Ambrose Metabolics L1 3:00:00 16.3 16.33 34, 50 (Avg:50)
215 Tony Standfield R.M. Lame L1 3:18:00 14.8 14.85 33, 40 (Avg:40)
232 Mark Haigh Kynnum Park Sadia Widthdrawn L1 3:19:00 - 14.77 32, 49 (Avg:49)
187 Elsie Nancarrow Dealbata Jackie-Rae Heart Rate L1 3:36:00 13.6 13.61 33, 58 (Avg:58)
196 Barbara Macdonald Kildara Sharina Metabolics L1 3:51:00 12.7 12.73 29, 55 (Avg:55)
184 Erica Williams Sharahd Friday Lame L1 3:54:00 12.5 12.56 28, 46 (Avg:46)
246 Rose Ross Knight O'Fyre Heart Rate L1 3:58:00 12.3 12.35 31, 65 (Avg:65)
109 Vicki Webber Killarney Magnifique Lame L1 3:58:00 12.3 12.35 40, 51 (Avg:51)
73 Paul Keyes Cedar Ridge Nicole Widthdrawn L1 4:23:00 - 11.18 33, 42 (Avg:42)
85 Gary Tweedie Ranjen Luke Heart Rate L1 4:29:00 10.9 10.93 36, 60 (Avg:60)
117 Gary Thomas Leestton Baylee Lame L1 4:54:00 9.9 10.00 39, 45 (Avg:45)
6 Monica Seiler Warrondi Jadir Heart Rate L1 5:24:00 9.0 9.07 33, 59 (Avg:59)
31 Amy Gooch Xanadu Moonlight Lady Metabolics P/R 0:00:00 - - 36
139 Rosalie Smith Deciban Lame P/R 0:00:00 - - 34
Lightweight
8 Daisuke Yasunaga Sharahd Lexia 1 (BC) 12:08:40 16.3, 13.0, 11.3, 12.1 13.17 54, 50, 42, 47, 44 (Avg:45)
211 Anne Jones Kim Dande Tara 2 13:23:10 15.0, 13.2, 9.8, 9.5 11.95 34, 45, 44, 49, 48 (Avg:46)
62 Gillian Petersohn Karakatana Aluf 3 14:20:10 15.8, 11.4, 9.2, 8.5 11.16 36, 42, 48, 49, 40 (Avg:44)
100 Janet Hurt Kejome Kayala 4 15:20:44 12.5, 11.6, 8.1, 10.0 10.43 36, 46, 54, 50, 52 (Avg:50)
70 Shirley Clark Judstan Katherina 5 15:22:10 13.4, 11.8, 8.5, 7.7 10.41 34, 50, 56, 58, 46 (Avg:52)
107 April Bonham Diamond R Jack 6 15:52:30 11.2, 10.3, 8.8, 10.0 10.08 36, 38, 53, 52, 46 (Avg:47)
198 Malcolm Matters Allamir Silver Domanic 7 15:59:20 12.1, 9.8, 8.6, 9.4 10.01 40, 44, 40, 45, 42 (Avg:42)
153 Rochelle Joyce Lac-La-Biche Corinna 8 16:26:58 12.6, 9.6, 8.1, 8.8 9.73 36, 45, 44, 50, 43 (Avg:45)
212 Christine Ablett Lindall Viking 9 17:24:06 12.6, 9.8, 7.9, 6.3 9.19 34, 44, 47, 58, 52 (Avg:50)
206 Nerrida Wolfe-Purton Lynton Park Khan 10 17:51:22 11.3, 9.0, 7.2, 8.7 8.96 29, 40, 46, 50, 40 (Avg:44)
82 Shelly Ison Miss Ellie 11 17:53:20 11.3, 9.3, 7.8, 6.8 8.94 36, 38, 40, 43, 47 (Avg:42)
235 Pip Lillyman Talisman Phantom 12 17:54:54 12.0, 9.8, 7.0, 7.1 8.93 31, 36, 44, 46, 41 (Avg:41)
87 Brett Willis Elexis 13 17:54:58 11.4, 8.2, 8.0, 8.0 8.93 35, 40, 46, 52, 48 (Avg:46)
222 Karen Lee Hurricane 14 17:59:56 11.1, 9.5, 7.4, 7.4 8.89 37, 35, 37, 44, 42 (Avg:39)
167 Gillian Barber Yarra Park Keshena 15 18:04:44 12.1, 10.1, 7.4, 5.8 8.85 40, 47, 52, 58, 56 (Avg:53)
105 Jessica Taylor Casablanca 16 18:05:00 11.0, 8.4, 8.1, 7.6 8.85 36, 46, 50, 46, 48 (Avg:47)
176 Kathy Maffett Grassmere Silver Ray 17 18:06:04 9.9, 9.1, 8.1, 7.6 8.84 28, 42, 51, 54, 53 (Avg:50)
163 Louise Lyon Pinosa Park Mikhaal 18 18:06:14 10.3, 9.6, 7.3, 7.9 8.84 40, 44, 52, 51, 44 (Avg:47)
7 Malvina Greenham Sharahd Fantasy 19 18:06:16 10.3, 9.6, 7.3, 7.8 8.84 40, 46, 48, 54, 50 (Avg:49)
244 Jaimee Foulsham Kirrong Park Karim 20 18:17:20 12.0, 8.6, 7.4, 7.0 8.75 52, 38, 40, 44, 38 (Avg:40)
74 David Forrester Just Plain Bill 21 19:15:00 10.4, 9.0, 6.9, 6.6 8.31 38, 48, 57, 55, 48 (Avg:52)
233 Julie Fletcher Hillbrae Garnet 22 19:27:00 10.1, 8.4, 6.9, 7.2 8.23 28, 48, 47, 54, 46 (Avg:48)
78 Linda Upsdell Aragon 23 19:31:00 10.2, 7.7, 7.5, 7.0 8.20 35, 48, 46, 50, 48 (Avg:48)
162 Philip Haworth Royal Facet 24 19:41:00 8.9, 8.7, 7.3, 7.0 8.13 0
61 Kristen Proudfoot Trecadeu Sinbad 24 19:41:00 10.1, 7.8, 7.0, 7.5 8.13 32, 44, 48, 48, 45 (Avg:46)
160 Victoria Edmonds Red Wombat 26 19:42:00 9.3, 9.5, 7.3, 5.8 8.12 46, 46, 54, 46, 50 (Avg:49)
55 Shan Symons Dashanda Sonaria 27 20:07:00 8.9, 7.9, 7.1, 7.8 7.95 32, 40, 49, 48, 40 (Avg:44)
116 Gloria Mills Sharnee Elvis 28 20:15:00 8.6, 7.2, 7.3, 9.2 7.90 28, 50, 45, 51, 46 (Avg:48)
11 Sheila Rattray Buster Boy 29 20:17:00 9.8, 7.4, 6.2, 9.6 7.89 27, 44, 52, 46, 49 (Avg:47)
181 Helen Spencer Gypsie 30 20:30:00 9.1, 8.3, 6.2, 8.0 7.80 36, 44, 47, 53, 47 (Avg:47)
204 Rose Freney Charabal Doyen Lame L3 10:05:00 16.7, 14.1, 11.0 13.69 35, 41, 44, 49 (Avg:44)
75 Rick Foley Belanjo Black Russian Heart Rate L3 13:37:00 12.0, 9.7, 8.9 10.13 28, 42, 55, 64 (Avg:53)
128 Leisa Neal Feathers Lame L3 13:56:00 11.1, 10.6, 8.2 9.90 31, 42, 54, 54 (Avg:50)
144 Jennie Brandley Koo Lame L3 14:39:00 12.1, 8.8, 7.8 9.42 37, 44, 50, 50 (Avg:48)
241 Briony Ledingham Karumba Germaine Heart Rate L3 15:54:00 10.0, 9.0, 7.2 8.68 33, 51, 58, 67 (Avg:58)
13 Liz McAuley Binda Lame L3 16:01:00 10.2, 7.7, 8.1 8.62 36, 48, 50, 50 (Avg:49)
26 Virginia Dodson Talisman Beau Monde Lame L3 16:31:00 12.5, 7.4, 6.6 8.36 44, 51, 47, 48 (Avg:48)
147 Faewyn Goyen Ranelle Lame L3 16:34:00 13.8, 9.1, 5.3 8.33 35, 48, 54, 44 (Avg:48)
134 Julie Van Kampen Roxy Metabolics L2 6:44:00 15.9, 12.5 14.11 44, 48, 47, 47 (Avg:47)
93 Judith Burton Wealdbarns Mufti Heart Rate L2 6:53:00 16.7, 11.6 13.80 34, 42, 74 (Avg:58)
120 Katrina Robinson Khurafa Heart Rate L2 7:59:00 15.1, 9.6 11.90 36, 46, 65 (Avg:55)
83 Dawn Spicer Otis Heart Rate L2 8:31:00 13.1, 9.6 11.15 33, 48, 68 (Avg:58)
192 Bruce Seaward Zeya Lame L2 8:32:00 11.7, 10.5 11.13 42, 43, 52 (Avg:47)
106 Kim Hagon Tuldar Abu Salaam Lame L2 8:34:00 12.0, 10.2 11.09 32, 45, 53 (Avg:49)
234 Melodie Churchill Gentle Touch Onleigh Lame L2 9:12:00 12.4, 8.7 10.33 37, 38, 40 (Avg:39)
118 Lee Duff Vanguard Lady Fatima Lame L2 9:32:00 10.9, 9.1 9.97 32, 45, 42 (Avg:43)
238 Jacky Clarke Lasalle Arabah Lame L2 9:33:00 10.6, 9.2 9.95 35, 39, 48 (Avg:43)
97 Debbie Longman M Bandolero Heart Rate L2 9:49:00 10.0, 9.2 9.68 46, 46, 64 (Avg:55)
240 Caroline Windle Lyndrian Rosetta Heart Rate L2 11:09:00 8.4, 8.6 8.52 32, 52, 62 (Avg:57)
145 Melissa Brownlee Navajo Heart Rate L2 11:46:00 8.5, 7.6 8.07 36, 42, 66 (Avg:54)
9 Leigh Anne Goldberg Sharahd Querita Lame L1 2:39:00 18.4 18.49 40, 45 (Avg:45)
46 Lyndell McGowan Rimsanet Park Ice House Heart Rate L1 3:07:00 15.7 15.72 38, 63 (Avg:63)
216 Nicole Urquhart Betty Boo Lame L1 3:48:00 12.8 12.89 32, 41 (Avg:41)
229 Kylie Roberts Kiandra Shalum Metabolics L1 4:00:00 12.2 12.25 39, 50 (Avg:50)
16 Ava Pellizzari Aloha Risca Heart Rate L1 4:15:00 11.5 11.53 38, 60 (Avg:60)
141 Arianne Riehs Millie Heart Rate L1 4:23:00 11.1 11.18 29, 62 (Avg:62)
25 Pam Beesley Polruan Pinnochio Lame L1 4:41:00 10.4 10.46 32, 40 (Avg:40)
92 Patricia Waddell Box Hill Payless Lame L1 5:38:00 8.6 8.70 40, 38 (Avg:38)
178 Tina Govan Roxy Complete P/R 18:00:03 - - 0
Junior
225 Shannon Parker Stanpark Ginnis 1 (BC) 12:08:40 14.9, 12.8, 12.2, 12.2 13.17 36, 40, 43, 54, 48 (Avg:46)
179 Kristie Taprell Atara Proud 2 14:06:22 14.9, 12.7, 11.5, 6.2 11.34 34, 34, 50, 57, 46 (Avg:46)
226 Katie-Maree Cullen Dealbata Siddhi 3 14:20:00 14.7, 11.4, 9.7, 8.4 11.16 34, 40, 54, 52, 46 (Avg:48)
186 Richard Caldwell Shaiyana 4 15:59:24 11.9, 9.5, 9.2, 9.0 10.01 28, 48, 50, 54, 47 (Avg:49)
32 Cameron Cox Jasmine Minstrel 5 17:02:10 11.5, 10.1, 7.5, 8.6 9.39 32, 48, 48, 50, 42 (Avg:47)
58 Kay Turnbull Kurrajong Jardine 6 17:29:02 11.4, 10.0, 7.3, 7.9 9.15 34, 39, 56, 54, 41 (Avg:47)
214 Trent Clifford Everglades Supreme 7 17:59:34 9.0, 10.0, 8.3, 7.6 8.89 32, 38, 40, 45, 41 (Avg:41)
127 Martin Gregson Burren-dah Sadie 8 18:01:34 11.2, 8.7, 7.3, 8.4 8.88 34, 44, 52, 56, 48 (Avg:50)
154 Kate Loughnan El-Akbar Odd Mark 9 20:07:00 8.3, 8.1, 7.3, 7.9 7.95 40, 40, 49, 54, 45 (Avg:47)
228 David Urquhart Gundy Heart Rate L3 11:05:00 14.8, 11.9, 10.8 12.45 36, 48, 52, 67 (Avg:55)
132 Joshua Cowdery Determination Lame L3 13:52:00 13.2, 9.4, 8.0 9.95 25, 44, 44, 48 (Avg:45)
114 Derryn Nix Princess Naria Metabolics L3 15:29:00 9.8, 8.6, 8.2 8.91 32, 40, 48, 58 (Avg:48)
148 Kailiea Goyen Peggy Sue Lame L3 15:58:00 13.8, 9.3, 5.7 8.64 37, 44, 50, 54 (Avg:49)
81 Glenn Mitchell Roxane Trigger Widthdrawn L3 17:31:00 - 7.88 35, 43, 48, 58 (Avg:49)
161 Danae Royal Slim Dusty Heart Rate L3 17:46:00 7.7, 7.3, 8.2 7.77 32, 44, 49, 64 (Avg:52)
29 Adam Cooper Bandeera Rajah Heart Rate L2 6:28:00 17.9, 12.3 14.69 50, 46, 63 (Avg:54)
220 Adrian Brickley Rokeby Joel Lame L2 6:51:00 14.9, 12.8 13.87 34, 43, 48 (Avg:45)
155 Anthony Loughnan Clarevale Emir Lame L2 11:27:00 8.3, 8.2 8.30 30, 42, 44 (Avg:43)
99 Rachael Thorn Mabrooka Nanette Lame L1 4:31:00 10.8 10.85 32, 37 (Avg:37)